Terminal Aerodrome Forecast
Issued by NWS

Home | Current Version | Previous Version | Text Only | Print | Product List | Glossary On
Versions: 1 2 3 4 5 6 7 8 9 10 11 12 13 14
000
FTUS43 KIND 031400 AAA
TAFHUF
TAF AMD
KHUF 031409Z 0314/0412 19008KT P6SM BKN100
     FM031600 19011G19KT P6SM SCT050 BKN120
     FM040100 18006KT P6SM SCT100 BKN250=

USA.gov is the U.S. government's official web portal to all federal, state and local government web resources and services.